Time;durP1;ratioP1;P1;durP2;ratioP2;P2;SDS_P1;SDS_P2;PMS_P1;PMS_P2;Temp;Humidity;BMP_temperature;BMP_pressure;BME280_temperature;BME280_humidity;BME280_pressure;Samples;Min_cycle;Max_cycle;Signal;HPM_P1;HPM_P2
2022/12/01 00:00:39;;;;;;;26.33;8.85;;;6.20;99.90;;;;;;4983385;28;20038;-75
2022/12/01 00:03:05;;;;;;;30.45;10.13;;;6.20;99.90;;;;;;4983441;28;20030;-75
2022/12/01 00:05:31;;;;;;;28.10;9.55;;;6.30;99.90;;;;;;5003123;28;20447;-75
2022/12/01 00:07:58;;;;;;;30.85;10.35;;;6.30;99.90;;;;;;4998490;28;20085;-75
2022/12/01 00:10:27;;;;;;;26.95;9.07;;;6.30;99.90;;;;;;4998275;28;20038;-75
2022/12/01 00:12:58;;;;;;;23.08;8.82;;;6.30;99.90;;;;;;5001491;28;20038;-75
2022/12/01 00:15:35;;;;;;;26.42;10.15;;;6.30;99.90;;;;;;4999820;28;20156;-75
2022/12/01 00:18:04;;;;;;;28.25;9.80;;;6.30;99.90;;;;;;4997204;28;20038;-75
2022/12/01 00:20:32;;;;;;;25.35;8.57;;;6.20;99.90;;;;;;5000189;28;20712;-75
2022/12/01 00:22:58;;;;;;;27.30;9.07;;;6.30;99.90;;;;;;4981532;28;20502;-75
2022/12/01 00:25:24;;;;;;;26.73;9.60;;;6.20;99.90;;;;;;4977789;28;20057;-75
2022/12/01 00:27:51;;;;;;;30.48;9.75;;;6.20;99.90;;;;;;4996151;28;20034;-75
2022/12/01 00:30:18;;;;;;;32.72;10.50;;;6.30;99.90;;;;;;4997738;28;20064;-75
2022/12/01 00:32:44;;;;;;;28.58;10.00;;;6.30;99.90;;;;;;5001897;28;20080;-75
2022/12/01 00:35:10;;;;;;;23.88;7.82;;;6.30;99.90;;;;;;5010306;28;20088;-75
2022/12/01 00:37:36;;;;;;;40.35;9.55;;;6.30;99.90;;;;;;4996954;28;20444;-75
2022/12/01 00:40:02;;;;;;;25.52;8.63;;;6.20;99.90;;;;;;5001034;28;20029;-75
2022/12/01 00:42:28;;;;;;;22.85;8.45;;;6.30;99.90;;;;;;4982940;28;20518;-75
2022/12/01 00:44:54;;;;;;;25.35;9.63;;;6.30;99.90;;;;;;5002136;28;20038;-75
2022/12/01 00:47:20;;;;;;;34.13;8.85;;;6.30;99.90;;;;;;5006708;28;20393;-75
2022/12/01 00:49:45;;;;;;;28.30;9.85;;;6.30;99.90;;;;;;5005921;28;20041;-75
2022/12/01 00:52:12;;;;;;;22.67;8.35;;;6.20;99.90;;;;;;5006344;28;20564;-75
2022/12/01 00:54:38;;;;;;;28.95;10.32;;;6.30;99.90;;;;;;4997219;28;20798;-75
2022/12/01 00:57:04;;;;;;;27.25;9.25;;;6.30;99.90;;;;;;5019808;28;20042;-75
2022/12/01 00:59:30;;;;;;;27.10;10.35;;;6.30;99.90;;;;;;4994937;28;20045;-75
2022/12/01 01:01:56;;;;;;;22.90;7.75;;;6.30;99.90;;;;;;4996455;28;20318;-75
2022/12/01 01:04:21;;;;;;;20.58;8.07;;;6.30;99.90;;;;;;4998583;28;20038;-75
2022/12/01 01:06:47;;;;;;;26.48;9.68;;;6.30;99.90;;;;;;4997208;28;20139;-75
2022/12/01 01:09:13;;;;;;;27.30;8.95;;;6.30;99.90;;;;;;4996668;28;20151;-75
2022/12/01 01:11:39;;;;;;;25.98;10.48;;;6.30;99.90;;;;;;4999949;28;20041;-75
2022/12/01 01:14:05;;;;;;;23.60;8.85;;;6.30;99.90;;;;;;5001101;28;20045;-75
2022/12/01 01:16:31;;;;;;;28.50;8.98;;;6.30;99.90;;;;;;4996196;28;20077;-75
2022/12/01 01:18:57;;;;;;;28.15;9.55;;;6.30;99.90;;;;;;4995210;28;20073;-75
2022/12/01 01:21:23;;;;;;;26.95;10.75;;;6.30;99.90;;;;;;5000037;28;20045;-75
2022/12/01 01:23:50;;;;;;;25.30;10.20;;;6.30;99.90;;;;;;4995472;28;20451;-75
2022/12/01 01:26:23;;;;;;;32.65;10.32;;;6.30;99.90;;;;;;5003480;28;20042;-75
2022/12/01 01:28:49;;;;;;;28.17;10.48;;;6.30;99.90;;;;;;5012208;28;20045;-75
2022/12/01 01:31:20;;;;;;;22.65;8.98;;;6.20;99.90;;;;;;5021056;28;20403;-75
2022/12/01 01:33:46;;;;;;;17.67;6.95;;;6.30;99.90;;;;;;5004989;28;20053;-75
2022/12/01 01:36:13;;;;;;;30.80;10.20;;;6.30;99.90;;;;;;4986352;28;22113;-75
2022/12/01 01:38:39;;;;;;;29.30;10.85;;;6.30;99.90;;;;;;5000791;28;20530;-75
2022/12/01 01:41:05;;;;;;;25.15;9.25;;;6.30;99.90;;;;;;5002542;28;20116;-75
2022/12/01 01:43:40;;;;;;;28.98;9.73;;;6.20;99.90;;;;;;4985636;28;20035;-75
2022/12/01 01:46:07;;;;;;;24.58;8.98;;;6.20;99.90;;;;;;5021115;28;20510;-75
2022/12/01 01:48:35;;;;;;;27.95;10.40;;;6.20;99.90;;;;;;5000856;28;20117;-75
2022/12/01 01:51:01;;;;;;;25.13;9.18;;;6.30;99.90;;;;;;5008626;28;20149;-75
2022/12/01 01:53:27;;;;;;;25.55;7.35;;;6.30;99.90;;;;;;4988842;28;20045;-75
2022/12/01 01:55:53;;;;;;;27.95;9.02;;;6.30;99.90;;;;;;5002424;28;20042;-75
2022/12/01 01:58:19;;;;;;;27.42;10.52;;;6.30;99.90;;;;;;5006766;28;20427;-76
2022/12/01 02:00:45;;;;;;;25.77;7.85;;;6.20;99.90;;;;;;5002158;28;20080;-75
2022/12/01 02:03:15;;;;;;;32.05;10.40;;;6.20;99.90;;;;;;5001707;28;20492;-75
2022/12/01 02:05:43;;;;;;;31.75;10.32;;;6.20;99.90;;;;;;4987886;28;20042;-75
2022/12/01 02:08:11;;;;;;;25.67;8.90;;;6.20;99.90;;;;;;5016901;28;20092;-75
2022/12/01 02:10:52;;;;;;;28.27;9.35;;;6.20;99.90;;;;;;4999102;28;20042;-75
2022/12/01 02:13:37;;;;;;;20.42;9.10;;;6.30;99.90;;;;;;5004708;28;20072;-75
2022/12/01 02:16:15;;;;;;;31.73;10.35;;;6.20;99.90;;;;;;4974496;28;20049;-75
2022/12/01 02:19:17;;;;;;;30.92;10.35;;;6.20;99.90;;;;;;5001007;28;20034;-75
2022/12/01 02:22:13;;;;;;;29.77;9.80;;;6.20;99.90;;;;;;5001986;28;20045;-75
2022/12/01 02:24:41;;;;;;;25.08;8.93;;;6.20;99.90;;;;;;4997616;28;20034;-75
2022/12/01 02:27:12;;;;;;;22.30;7.65;;;6.20;99.90;;;;;;5000353;28;20042;-75
2022/12/01 02:29:37;;;;;;;26.88;9.25;;;6.20;99.90;;;;;;5001561;28;20092;-75
2022/12/01 02:32:28;;;;;;;30.65;10.65;;;6.20;99.90;;;;;;4983331;28;20034;-75
2022/12/01 02:35:04;;;;;;;22.45;9.55;;;6.20;99.90;;;;;;5001692;28;20045;-75
2022/12/01 02:37:56;;;;;;;24.75;10.88;;;6.20;99.90;;;;;;5002324;28;20042;-75
2022/12/01 02:40:38;;;;;;;29.48;10.77;;;6.20;99.90;;;;;;5003209;28;20057;-75
2022/12/01 02:43:16;;;;;;;26.25;8.57;;;6.20;99.90;;;;;;5003596;28;20128;-75
2022/12/01 02:45:54;;;;;;;27.17;8.88;;;6.20;99.90;;;;;;5019917;28;20034;-75
2022/12/01 02:48:28;;;;;;;23.85;9.70;;;6.20;99.90;;;;;;5006422;28;20495;-75
2022/12/01 02:50:58;;;;;;;36.25;10.75;;;6.20;99.90;;;;;;5007197;28;20109;-75
2022/12/01 02:53:24;;;;;;;29.13;9.43;;;6.20;99.90;;;;;;5007557;28;20162;-75
2022/12/01 02:55:56;;;;;;;29.23;9.27;;;6.20;99.90;;;;;;5001689;28;20049;-75
2022/12/01 02:58:22;;;;;;;28.80;10.32;;;6.20;99.90;;;;;;5016915;28;20081;-75
2022/12/01 03:01:28;;;;;;;26.75;9.05;;;6.20;99.90;;;;;;5001525;28;20038;-75
2022/12/01 03:04:12;;;;;;;29.33;9.15;;;6.10;99.90;;;;;;4942897;28;20041;-75
2022/12/01 03:06:54;;;;;;;25.58;11.50;;;6.20;99.90;;;;;;4998330;28;20046;-75
2022/12/01 03:09:35;;;;;;;26.80;9.65;;;6.10;99.90;;;;;;4981590;28;20049;-75
2022/12/01 03:12:16;;;;;;;33.10;11.38;;;6.10;99.90;;;;;;5002065;28;20628;-75
2022/12/01 03:14:50;;;;;;;36.85;9.95;;;6.20;99.90;;;;;;4986197;28;20129;-75
2022/12/01 03:17:20;;;;;;;23.70;9.23;;;6.20;99.90;;;;;;5001177;28;20069;-75
2022/12/01 03:19:54;;;;;;;34.47;10.32;;;6.20;99.90;;;;;;4982763;28;20161;-75
2022/12/01 03:22:25;;;;;;;28.55;10.15;;;6.20;99.90;;;;;;4993593;28;20484;-75
2022/12/01 03:24:54;;;;;;;22.00;9.27;;;6.20;99.90;;;;;;5014864;28;20488;-75
2022/12/01 03:27:25;;;;;;;36.47;10.32;;;6.20;99.90;;;;;;4996222;28;20053;-75
2022/12/01 03:29:54;;;;;;;27.92;10.00;;;6.20;99.90;;;;;;5000731;28;20128;-75
2022/12/01 03:32:31;;;;;;;30.23;10.65;;;6.20;99.90;;;;;;4995628;28;20080;-75
2022/12/01 03:35:03;;;;;;;33.53;9.70;;;6.20;99.90;;;;;;4998272;28;20037;-75
2022/12/01 03:37:36;;;;;;;25.85;9.27;;;6.20;99.90;;;;;;5017547;28;20050;-75
2022/12/01 03:40:05;;;;;;;31.50;10.50;;;6.20;99.90;;;;;;4982429;28;20056;-75
2022/12/01 03:42:37;;;;;;;25.25;8.65;;;6.20;99.90;;;;;;4984634;28;20042;-75
2022/12/01 03:45:23;;;;;;;31.65;10.85;;;6.20;99.90;;;;;;4998700;28;20692;-75
2022/12/01 03:47:50;;;;;;;29.20;9.57;;;6.20;99.90;;;;;;5015999;28;20124;-75
2022/12/01 03:50:17;;;;;;;27.27;9.77;;;6.20;99.90;;;;;;4994935;28;20061;-75
2022/12/01 03:53:02;;;;;;;25.20;10.00;;;6.20;99.90;;;;;;5002255;28;20048;-75
2022/12/01 03:55:29;;;;;;;27.95;10.25;;;6.20;99.90;;;;;;4986399;28;20042;-75
2022/12/01 03:58:07;;;;;;;31.10;10.27;;;6.20;99.90;;;;;;4996933;28;20034;-75
2022/12/01 04:00:33;;;;;;;37.92;12.75;;;6.20;99.90;;;;;;4999522;28;20519;-75
2022/12/01 04:03:03;;;;;;;24.98;9.13;;;6.20;99.90;;;;;;4996227;28;20033;-75
2022/12/01 04:05:30;;;;;;;29.17;10.50;;;6.20;99.90;;;;;;4998002;28;20053;-75
2022/12/01 04:07:56;;;;;;;29.45;11.30;;;6.20;99.90;;;;;;5001569;28;20048;-75
2022/12/01 04:10:21;;;;;;;37.47;10.45;;;6.20;99.90;;;;;;5000245;28;20038;-75
2022/12/01 04:12:47;;;;;;;25.95;9.52;;;6.10;99.90;;;;;;5016953;28;20089;-75
2022/12/01 04:15:13;;;;;;;33.35;11.38;;;6.10;99.90;;;;;;4985905;28;20054;-75
2022/12/01 04:17:43;;;;;;;25.50;10.30;;;6.10;99.90;;;;;;4984221;28;20045;-75
2022/12/01 04:20:12;;;;;;;26.38;8.90;;;6.10;99.90;;;;;;4999455;28;20081;-75
2022/12/01 04:22:38;;;;;;;28.75;10.07;;;6.20;99.90;;;;;;4999436;28;20577;-75
2022/12/01 04:25:05;;;;;;;45.13;10.73;;;6.20;99.90;;;;;;4997250;28;20042;-75
2022/12/01 04:27:31;;;;;;;28.45;9.88;;;6.20;99.90;;;;;;4983224;28;20551;-75
2022/12/01 04:29:56;;;;;;;25.38;10.52;;;6.20;99.90;;;;;;5002377;28;20133;-75
2022/12/01 04:32:22;;;;;;;27.60;9.93;;;6.20;99.90;;;;;;5001080;28;20038;-75
2022/12/01 04:34:48;;;;;;;27.42;9.50;;;6.20;99.90;;;;;;5001079;28;20216;-75
2022/12/01 04:37:14;;;;;;;28.67;11.02;;;6.20;99.90;;;;;;4997419;28;20088;-75
2022/12/01 04:39:43;;;;;;;22.00;8.40;;;6.20;99.90;;;;;;5000934;28;20061;-75
2022/12/01 04:42:09;;;;;;;43.15;12.75;;;6.20;99.90;;;;;;4999409;28;20140;-75
2022/12/01 04:44:35;;;;;;;27.05;9.60;;;6.10;99.90;;;;;;5001257;28;20041;-75
2022/12/01 04:47:02;;;;;;;26.35;9.48;;;6.10;99.90;;;;;;4987225;28;20034;-75
2022/12/01 04:49:27;;;;;;;34.92;10.23;;;6.10;99.90;;;;;;4996622;28;20128;-75
2022/12/01 04:51:53;;;;;;;32.67;12.23;;;6.10;99.90;;;;;;5001276;28;20057;-75
2022/12/01 04:54:18;;;;;;;34.78;13.13;;;6.10;99.90;;;;;;4999436;28;20208;-75
2022/12/01 04:56:44;;;;;;;28.23;10.20;;;6.00;99.90;;;;;;4986812;28;20127;-75
2022/12/01 04:59:10;;;;;;;31.13;9.52;;;6.10;99.90;;;;;;5002234;28;20165;-75
2022/12/01 05:01:36;;;;;;;28.30;9.45;;;6.10;99.90;;;;;;5005543;28;20034;-75
2022/12/01 05:04:03;;;;;;;31.67;11.73;;;6.10;99.90;;;;;;4982260;28;20034;-75
2022/12/01 05:06:28;;;;;;;32.58;10.65;;;6.10;99.90;;;;;;4997580;28;20062;-75
2022/12/01 05:08:57;;;;;;;35.67;11.95;;;6.10;99.90;;;;;;5003600;28;20104;-75
2022/12/01 05:11:26;;;;;;;33.13;10.45;;;6.00;99.90;;;;;;4998589;28;20059;-75
2022/12/01 05:13:52;;;;;;;34.15;9.65;;;6.10;99.90;;;;;;5000409;28;20050;-75
2022/12/01 05:16:23;;;;;;;38.05;11.93;;;6.00;99.90;;;;;;5005589;28;20034;-75
2022/12/01 05:18:50;;;;;;;33.80;11.07;;;6.00;99.90;;;;;;5004124;28;20038;-75
2022/12/01 05:21:17;;;;;;;31.50;10.25;;;6.00;99.90;;;;;;4990818;28;20054;-75
2022/12/01 05:23:46;;;;;;;32.50;11.38;;;6.00;99.90;;;;;;4996329;28;20049;-75
2022/12/01 05:26:11;;;;;;;37.55;13.15;;;6.00;99.90;;;;;;4999007;28;20492;-75
2022/12/01 05:28:37;;;;;;;33.13;11.60;;;6.00;99.90;;;;;;5001831;28;20049;-75
2022/12/01 05:31:03;;;;;;;33.20;11.13;;;6.00;99.90;;;;;;5004648;28;20045;-75
2022/12/01 05:33:29;;;;;;;28.92;9.85;;;6.00;99.90;;;;;;5003908;28;20029;-75
2022/12/01 05:35:55;;;;;;;29.77;11.15;;;6.00;99.90;;;;;;5004798;28;20048;-75
2022/12/01 05:38:21;;;;;;;34.60;12.10;;;6.00;99.90;;;;;;4984156;28;20026;-75
2022/12/01 05:40:51;;;;;;;32.90;10.95;;;6.00;99.90;;;;;;5015207;28;20461;-75
2022/12/01 05:43:19;;;;;;;33.03;11.15;;;6.10;99.90;;;;;;5008337;28;20042;-75
2022/12/01 05:45:44;;;;;;;34.78;11.30;;;6.00;99.90;;;;;;5001646;28;20073;-75
2022/12/01 05:48:10;;;;;;;37.55;11.85;;;6.00;99.90;;;;;;5000033;28;20061;-75
2022/12/01 05:50:37;;;;;;;35.63;11.45;;;6.10;99.90;;;;;;4987949;28;20034;-75
2022/12/01 05:53:03;;;;;;;39.75;11.70;;;6.10;99.90;;;;;;5001425;28;20096;-75
2022/12/01 05:55:29;;;;;;;32.03;12.52;;;6.10;99.90;;;;;;5000317;28;20033;-75
2022/12/01 05:57:54;;;;;;;33.83;11.98;;;6.10;99.90;;;;;;5004060;28;20510;-75
2022/12/01 06:00:20;;;;;;;36.67;12.63;;;6.00;99.90;;;;;;5002201;28;20034;-75
2022/12/01 06:02:46;;;;;;;32.35;12.10;;;6.10;99.90;;;;;;5004220;28;20038;-75
2022/12/01 06:05:11;;;;;;;34.65;11.15;;;6.00;99.90;;;;;;4984119;28;20038;-75
2022/12/01 06:07:39;;;;;;;35.05;12.20;;;6.10;99.90;;;;;;4984107;28;20038;-75
2022/12/01 06:10:05;;;;;;;41.78;12.73;;;6.10;99.90;;;;;;5001894;28;20048;-75
2022/12/01 06:12:31;;;;;;;30.38;11.70;;;6.10;99.90;;;;;;5004088;28;20458;-75
2022/12/01 06:14:56;;;;;;;37.95;12.63;;;6.10;99.90;;;;;;5002622;28;20042;-75
2022/12/01 06:17:22;;;;;;;36.05;10.43;;;6.10;99.90;;;;;;5000210;28;20132;-75
2022/12/01 06:19:48;;;;;;;30.17;11.95;;;6.10;99.90;;;;;;4978074;28;20497;-75
2022/12/01 06:22:13;;;;;;;43.50;10.93;;;6.10;99.90;;;;;;4985913;28;20092;-75
2022/12/01 06:24:39;;;;;;;33.17;11.85;;;6.10;99.90;;;;;;4984851;28;20117;-75
2022/12/01 06:27:05;;;;;;;33.85;11.50;;;6.10;99.90;;;;;;4984993;28;20034;-75
2022/12/01 06:29:30;;;;;;;27.15;10.23;;;6.10;99.90;;;;;;5001698;28;20042;-75
2022/12/01 06:31:56;;;;;;;38.15;12.70;;;6.10;99.90;;;;;;5003393;28;20096;-75
2022/12/01 06:34:22;;;;;;;35.75;11.73;;;6.10;99.90;;;;;;4999912;28;20435;-75
2022/12/01 06:36:47;;;;;;;33.78;11.00;;;6.10;99.90;;;;;;4996270;28;20438;-75
2022/12/01 06:39:15;;;;;;;34.58;11.50;;;6.10;99.90;;;;;;5003486;28;20044;-75
2022/12/01 06:41:41;;;;;;;26.27;10.15;;;6.10;99.90;;;;;;4986600;28;20033;-75
2022/12/01 06:44:07;;;;;;;30.73;10.77;;;6.10;99.90;;;;;;5004261;28;20105;-76
2022/12/01 06:46:32;;;;;;;33.15;11.27;;;6.20;99.90;;;;;;5008042;28;20070;-76
2022/12/01 06:48:58;;;;;;;32.22;11.75;;;6.20;99.90;;;;;;5007913;28;20068;-76
2022/12/01 06:51:23;;;;;;;37.35;12.63;;;6.20;99.90;;;;;;5006795;28;20690;-76
2022/12/01 06:53:53;;;;;;;35.60;10.93;;;6.20;99.90;;;;;;5004484;28;20045;-76
2022/12/01 06:56:20;;;;;;;24.67;10.57;;;6.20;99.90;;;;;;5003803;28;20038;-76
2022/12/01 06:58:46;;;;;;;36.38;10.32;;;6.20;99.90;;;;;;5001559;28;20129;-76
2022/12/01 07:01:12;;;;;;;30.85;10.35;;;6.20;99.90;;;;;;4997836;28;20081;-76
2022/12/01 07:03:38;;;;;;;36.72;12.20;;;6.20;99.90;;;;;;4989850;28;20039;-76
2022/12/01 07:06:04;;;;;;;26.85;10.07;;;6.20;99.90;;;;;;4998880;28;20544;-76
2022/12/01 07:08:31;;;;;;;32.33;11.73;;;6.20;99.90;;;;;;5001075;28;20132;-76
2022/12/01 07:11:13;;;;;;;33.50;10.93;;;6.20;99.90;;;;;;4999626;28;20083;-76
2022/12/01 07:13:40;;;;;;;32.83;10.00;;;6.20;99.90;;;;;;5000358;28;20041;-76
2022/12/01 07:16:07;;;;;;;34.83;11.23;;;6.20;99.90;;;;;;5007145;28;20049;-76
2022/12/01 07:18:34;;;;;;;38.20;10.93;;;6.20;99.90;;;;;;5004573;28;20124;-76
2022/12/01 07:21:01;;;;;;;35.92;10.93;;;6.20;99.90;;;;;;5001535;28;20054;-76
2022/12/01 07:23:26;;;;;;;32.45;10.25;;;6.30;99.90;;;;;;4991885;28;20227;-76
2022/12/01 07:26:20;;;;;;;31.52;10.50;;;6.20;99.90;;;;;;5005287;28;20468;-75
2022/12/01 07:28:45;;;;;;;25.15;9.95;;;6.20;99.90;;;;;;4994520;28;20050;-76
2022/12/01 07:31:16;;;;;;;25.83;9.38;;;6.20;99.90;;;;;;4999447;28;20026;-75
2022/12/01 07:33:42;;;;;;;34.17;12.52;;;6.20;99.90;;;;;;4997815;28;20046;-76
2022/12/01 07:36:10;;;;;;;39.90;11.55;;;6.20;99.90;;;;;;4983434;28;20045;-75
2022/12/01 07:38:36;;;;;;;32.25;11.32;;;6.20;99.90;;;;;;5014771;28;20441;-75
2022/12/01 07:41:08;;;;;;;39.63;10.90;;;6.20;99.90;;;;;;4984125;28;20030;-76
2022/12/01 07:43:34;;;;;;;29.63;10.30;;;6.20;99.90;;;;;;4999982;28;20038;-76
2022/12/01 07:46:10;;;;;;;31.08;10.13;;;6.20;99.90;;;;;;5000236;28;20038;-76
2022/12/01 07:48:37;;;;;;;33.90;11.48;;;6.20;99.90;;;;;;4981897;28;20439;-76
2022/12/01 07:51:04;;;;;;;22.90;9.25;;;6.20;99.90;;;;;;5002262;28;20033;-76
2022/12/01 07:53:30;;;;;;;30.55;11.25;;;6.30;99.90;;;;;;4981978;28;20034;-76
2022/12/01 07:55:56;;;;;;;29.02;10.20;;;6.20;99.90;;;;;;4994899;28;20026;-76
2022/12/01 07:58:21;;;;;;;29.33;12.00;;;6.30;99.90;;;;;;4995292;28;20541;-76
2022/12/01 08:00:47;;;;;;;29.73;11.38;;;6.30;99.90;;;;;;4994277;28;20037;-77
2022/12/01 08:03:13;;;;;;;31.83;9.13;;;6.30;99.90;;;;;;4999683;28;20029;-76
2022/12/01 08:05:39;;;;;;;28.00;9.98;;;6.30;99.90;;;;;;4996610;28;20710;-76
2022/12/01 08:08:04;;;;;;;32.25;10.85;;;6.30;99.90;;;;;;4982718;28;20041;-76
2022/12/01 08:10:30;;;;;;;31.50;11.65;;;6.30;99.90;;;;;;4983019;28;20037;-76
2022/12/01 08:12:56;;;;;;;30.00;10.05;;;6.30;99.90;;;;;;5000939;28;20045;-77
2022/12/01 08:15:22;;;;;;;36.33;11.93;;;6.30;99.90;;;;;;4998540;28;20038;-76
2022/12/01 08:17:47;;;;;;;40.05;13.02;;;6.30;99.90;;;;;;4996777;28;20081;-76
2022/12/01 08:20:14;;;;;;;31.13;11.07;;;6.30;99.90;;;;;;5000122;28;20053;-76
2022/12/01 08:22:40;;;;;;;29.30;10.15;;;6.30;99.90;;;;;;4996573;28;20042;-77
2022/12/01 08:25:06;;;;;;;32.38;11.43;;;6.30;99.90;;;;;;4996404;28;20036;-77
2022/12/01 08:27:33;;;;;;;27.85;10.23;;;6.30;99.90;;;;;;4982002;28;20041;-77
2022/12/01 08:29:58;;;;;;;30.70;11.40;;;6.30;99.90;;;;;;4994233;28;20042;-77
2022/12/01 08:32:24;;;;;;;33.72;11.15;;;6.30;99.90;;;;;;4994236;28;20049;-77
2022/12/01 08:34:49;;;;;;;32.25;9.70;;;6.30;99.90;;;;;;4996393;28;20033;-77
2022/12/01 08:37:15;;;;;;;31.20;10.90;;;6.30;99.90;;;;;;4997040;28;20091;-76
2022/12/01 08:39:40;;;;;;;24.35;9.82;;;6.30;99.90;;;;;;4994564;28;20080;-77
2022/12/01 08:42:06;;;;;;;31.00;10.73;;;6.30;99.90;;;;;;4997950;28;20034;-78
2022/12/01 08:44:31;;;;;;;34.33;10.15;;;6.30;99.90;;;;;;5003261;28;20030;-77
2022/12/01 08:46:57;;;;;;;27.10;11.05;;;6.30;99.90;;;;;;5004103;28;20053;-77
2022/12/01 08:49:23;;;;;;;32.30;9.60;;;6.30;99.90;;;;;;5003181;28;20091;-77
2022/12/01 08:51:48;;;;;;;36.92;11.77;;;6.30;99.90;;;;;;4978762;28;20507;-75
2022/12/01 08:54:15;;;;;;;36.72;10.77;;;6.30;99.90;;;;;;5015183;28;20205;-78
2022/12/01 08:56:42;;;;;;;36.42;11.07;;;6.30;99.90;;;;;;4994419;28;20257;-77
2022/12/01 08:59:08;;;;;;;29.15;9.63;;;6.30;99.90;;;;;;5006849;28;20657;-77
2022/12/01 09:01:50;;;;;;;35.88;10.38;;;6.30;99.90;;;;;;4989644;28;20033;-77
2022/12/01 09:04:17;;;;;;;31.60;11.82;;;6.30;99.90;;;;;;5020416;28;20135;-77
2022/12/01 09:06:45;;;;;;;23.38;10.57;;;6.30;99.90;;;;;;5004165;28;20041;-77
2022/12/01 09:09:15;;;;;;;54.05;16.02;;;6.30;99.90;;;;;;4988016;28;20030;-78
2022/12/01 09:11:42;;;;;;;64.60;21.15;;;6.30;99.90;;;;;;5002858;28;20034;-78
2022/12/01 09:14:08;;;;;;;33.08;10.88;;;6.30;99.90;;;;;;4994874;28;20050;-77
2022/12/01 09:16:34;;;;;;;30.23;11.07;;;6.30;99.90;;;;;;5005541;28;20419;-78
2022/12/01 09:19:00;;;;;;;27.52;10.20;;;6.30;99.90;;;;;;5005437;28;20475;-77
2022/12/01 09:21:29;;;;;;;33.03;10.90;;;6.30;99.90;;;;;;5002619;28;20049;-78
2022/12/01 09:23:55;;;;;;;26.77;10.73;;;6.40;99.90;;;;;;5004345;28;20516;-78
2022/12/01 09:26:21;;;;;;;25.25;10.50;;;6.40;99.90;;;;;;4987631;28;20128;-77
2022/12/01 09:28:49;;;;;;;28.63;11.02;;;6.40;99.90;;;;;;4987789;28;20065;-77
2022/12/01 09:31:17;;;;;;;31.25;12.63;;;6.40;99.90;;;;;;4995631;28;20042;-78
2022/12/01 09:33:43;;;;;;;38.65;13.57;;;6.30;99.90;;;;;;4999464;28;20436;-80
2022/12/01 09:36:10;;;;;;;30.60;11.57;;;6.40;99.90;;;;;;4987572;28;20496;-79
2022/12/01 09:38:36;;;;;;;31.98;11.32;;;6.40;99.90;;;;;;5002123;28;20503;-79
2022/12/01 09:41:07;;;;;;;26.52;9.27;;;6.40;99.90;;;;;;5001994;28;20511;-79
2022/12/01 09:43:44;;;;;;;25.15;9.25;;;6.40;99.90;;;;;;4987465;28;20048;-79
2022/12/01 09:46:19;;;;;;;28.52;9.65;;;6.40;99.90;;;;;;5004514;28;20038;-79
2022/12/01 09:48:48;;;;;;;30.83;10.90;;;6.40;99.90;;;;;;5006785;28;20054;-79
2022/12/01 09:51:22;;;;;;;27.20;8.65;;;6.40;99.90;;;;;;5007551;28;20408;-79
2022/12/01 09:53:54;;;;;;;24.45;9.93;;;6.40;99.90;;;;;;5005733;28;20567;-79
2022/12/01 09:56:25;;;;;;;19.83;9.02;;;6.50;99.90;;;;;;4987522;28;20515;-78
2022/12/01 09:58:58;;;;;;;25.80;8.57;;;6.50;99.90;;;;;;5006191;28;20048;-79
2022/12/01 10:01:36;;;;;;;30.58;9.75;;;6.50;99.90;;;;;;4988655;28;20125;-79
2022/12/01 10:04:10;;;;;;;31.80;11.73;;;6.50;99.90;;;;;;4994624;28;20031;-79
2022/12/01 10:06:42;;;;;;;24.33;8.85;;;6.50;99.90;;;;;;4980571;28;20046;-79
2022/12/01 10:09:42;;;;;;;23.63;9.68;;;6.50;99.90;;;;;;5004192;28;20132;-79
2022/12/01 10:12:18;;;;;;;30.00;10.18;;;6.50;99.90;;;;;;5006755;28;20535;-79
2022/12/01 10:14:46;;;;;;;23.90;8.43;;;6.60;99.90;;;;;;5003717;28;20099;-79
2022/12/01 10:17:42;;;;;;;26.60;10.20;;;6.50;99.90;;;;;;5006229;28;20987;-79
2022/12/01 10:20:20;;;;;;;32.90;10.93;;;6.60;99.90;;;;;;4986167;28;20069;-79
2022/12/01 10:23:01;;;;;;;26.70;8.73;;;6.60;99.90;;;;;;5005837;28;20117;-79
2022/12/01 10:25:32;;;;;;;24.88;8.90;;;6.60;99.90;;;;;;4976771;28;20042;-79
2022/12/01 10:28:10;;;;;;;25.13;8.90;;;6.60;99.90;;;;;;5006659;28;20087;-79
2022/12/01 10:30:47;;;;;;;26.95;9.25;;;6.60;99.90;;;;;;4983394;28;20522;-79
2022/12/01 10:33:32;;;;;;;30.02;10.18;;;6.60;99.90;;;;;;4995242;28;21521;-80
2022/12/01 10:35:58;;;;;;;28.80;10.17;;;6.60;99.90;;;;;;5001619;28;20045;-80
2022/12/01 10:38:30;;;;;;;22.85;8.63;;;6.60;99.90;;;;;;5004736;28;20038;-80
2022/12/01 10:40:59;;;;;;;28.42;10.63;;;6.60;99.90;;;;;;4992773;28;20038;-80
2022/12/01 10:43:33;;;;;;;23.50;8.52;;;6.70;99.90;;;;;;5010640;28;20049;-80
2022/12/01 10:46:15;;;;;;;21.27;8.00;;;6.70;99.90;;;;;;4993788;28;20520;-80
2022/12/01 10:48:59;;;;;;;28.55;9.10;;;6.70;99.90;;;;;;5003865;28;20046;-80
2022/12/01 10:51:26;;;;;;;19.25;7.28;;;6.70;99.90;;;;;;4974161;28;20045;-80
2022/12/01 10:54:05;;;;;;;23.67;7.85;;;6.70;99.90;;;;;;4974789;28;20042;-80
2022/12/01 10:56:31;;;;;;;21.77;8.15;;;6.70;99.90;;;;;;4989225;28;20046;-80
2022/12/01 10:59:01;;;;;;;26.48;8.80;;;6.70;99.90;;;;;;4990739;28;20042;-80
2022/12/01 11:01:30;;;;;;;27.67;8.77;;;6.70;99.90;;;;;;4986818;28;20077;-80
2022/12/01 11:04:06;;;;;;;29.42;8.98;;;6.70;99.90;;;;;;5009221;28;20037;-80
2022/12/01 11:06:34;;;;;;;24.95;7.55;;;6.70;99.90;;;;;;5007267;28;20042;-80
2022/12/01 11:09:04;;;;;;;20.40;7.93;;;6.70;99.90;;;;;;5009369;28;20240;-80
2022/12/01 11:11:32;;;;;;;23.23;8.50;;;6.80;99.90;;;;;;4992834;28;20261;-79
2022/12/01 11:14:02;;;;;;;24.25;8.25;;;6.80;99.90;;;;;;5009579;28;20129;-80
2022/12/01 11:16:43;;;;;;;28.55;8.30;;;6.70;99.90;;;;;;5009772;28;20045;-80
2022/12/01 11:19:19;;;;;;;22.90;8.25;;;6.80;99.90;;;;;;4992315;28;20125;-79
2022/12/01 11:21:47;;;;;;;20.58;8.00;;;6.80;99.90;;;;;;4989934;28;20042;-80
2022/12/01 11:24:31;;;;;;;19.85;7.75;;;6.80;99.90;;;;;;4988597;28;20484;-80
2022/12/01 11:26:57;;;;;;;25.48;9.38;;;6.90;99.90;;;;;;4990122;28;20415;-80
2022/12/01 11:29:35;;;;;;;23.67;7.85;;;6.90;99.90;;;;;;4990034;28;20054;-80
2022/12/01 11:32:11;;;;;;;19.58;8.05;;;6.90;99.90;;;;;;4991628;28;20105;-80
2022/12/01 11:34:37;;;;;;;22.98;8.88;;;6.90;99.90;;;;;;4996516;28;20416;-80
2022/12/01 11:37:14;;;;;;;23.85;8.80;;;6.90;99.90;;;;;;4992691;28;20514;-80
2022/12/01 11:39:43;;;;;;;28.88;9.07;;;6.90;99.90;;;;;;4992638;28;20034;-80
2022/12/01 11:42:25;;;;;;;25.65;8.32;;;6.90;99.90;;;;;;5009576;28;20064;-80
2022/12/01 11:45:01;;;;;;;23.75;8.88;;;6.90;99.90;;;;;;5009148;28;20038;-80
2022/12/01 11:47:27;;;;;;;32.28;10.43;;;6.90;99.90;;;;;;5003498;28;20190;-80
2022/12/01 11:50:03;;;;;;;31.08;10.48;;;6.90;99.90;;;;;;4989363;28;20042;-79
2022/12/01 11:52:32;;;;;;;30.23;9.90;;;6.90;99.90;;;;;;5007459;28;20495;-79
2022/12/01 11:55:01;;;;;;;29.88;9.68;;;6.90;99.90;;;;;;4988503;28;20522;-79
2022/12/01 11:57:29;;;;;;;28.65;8.85;;;6.90;99.90;;;;;;5005460;28;20049;-79
2022/12/01 11:59:55;;;;;;;22.58;9.40;;;6.90;99.90;;;;;;5004009;28;20041;-78
2022/12/01 12:02:41;;;;;;;23.77;8.85;;;6.90;99.90;;;;;;5000190;28;20065;-78
2022/12/01 12:05:31;;;;;;;26.77;8.95;;;6.90;99.90;;;;;;4992337;28;20038;-79
2022/12/01 12:08:09;;;;;;;21.63;7.88;;;6.90;99.90;;;;;;4992404;28;20084;-78
2022/12/01 12:11:01;;;;;;;20.73;7.47;;;6.90;99.90;;;;;;4980958;28;20037;-77
2022/12/01 12:13:44;;;;;;;25.10;7.85;;;6.90;99.90;;;;;;4999508;28;20061;-77
2022/12/01 12:16:38;;;;;;;23.77;9.02;;;6.90;99.90;;;;;;5005190;28;20037;-77
2022/12/01 12:19:28;;;;;;;23.88;8.57;;;6.90;99.90;;;;;;4996202;28;20041;-78
2022/12/01 12:22:15;;;;;;;24.77;8.60;;;6.90;99.90;;;;;;4988033;28;20511;-78
2022/12/01 12:24:59;;;;;;;21.85;8.00;;;6.90;99.90;;;;;;5008136;28;20069;-78
2022/12/01 12:27:41;;;;;;;21.30;8.68;;;6.90;99.90;;;;;;4997617;28;20334;-78
2022/12/01 12:30:18;;;;;;;25.13;9.38;;;6.90;99.90;;;;;;5005307;28;20042;-78
2022/12/01 12:33:14;;;;;;;25.20;8.77;;;6.90;99.90;;;;;;5003418;28;20511;-78
2022/12/01 12:35:52;;;;;;;23.13;7.28;;;6.90;99.90;;;;;;4984762;28;20044;-78
2022/12/01 12:38:29;;;;;;;21.98;8.82;;;7.00;99.90;;;;;;4992252;28;20125;-78
2022/12/01 12:41:32;;;;;;;21.90;7.20;;;6.90;99.90;;;;;;4994300;28;20504;-78
2022/12/01 12:44:16;;;;;;;21.90;8.23;;;6.90;99.90;;;;;;4987722;28;20029;-77
2022/12/01 12:47:04;;;;;;;25.85;9.50;;;6.90;99.90;;;;;;5004928;28;20495;-78
2022/12/01 12:49:42;;;;;;;27.67;9.73;;;6.90;99.90;;;;;;4989577;28;20278;-78
2022/12/01 12:52:15;;;;;;;27.38;8.65;;;6.90;99.90;;;;;;4997324;28;20508;-78
2022/12/01 12:54:56;;;;;;;21.30;8.55;;;6.90;99.90;;;;;;4986980;28;20084;-77
2022/12/01 12:57:32;;;;;;;16.83;6.97;;;6.90;99.90;;;;;;5003554;28;20065;-76